sensor_id;sensor_type;location;lat;lon;timestamp;pressure;altitude;pressure_sealevel;temperature;humidity
18678;BME280;9469;51.114;13.914;2023-04-25T00:01:36;97921.97;;;9.76;91.55
18678;BME280;9469;51.114;13.914;2023-04-25T00:06:41;97921.66;;;10.12;90.43
18678;BME280;9469;51.114;13.914;2023-04-25T00:11:46;97921.84;;;9.81;91.24
18678;BME280;9469;51.114;13.914;2023-04-25T00:16:54;97922.59;;;9.82;92.12
18678;BME280;9469;51.114;13.914;2023-04-25T00:22:00;97917.59;;;9.89;91.78
18678;BME280;9469;51.114;13.914;2023-04-25T00:27:05;97924.47;;;9.90;91.74
18678;BME280;9469;51.114;13.914;2023-04-25T00:32:12;97918.66;;;10.31;88.54
18678;BME280;9469;51.114;13.914;2023-04-25T00:37:17;97917.88;;;10.04;90.48
18678;BME280;9469;51.114;13.914;2023-04-25T00:42:24;97921.19;;;9.76;92.97
18678;BME280;9469;51.114;13.914;2023-04-25T00:47:32;97920.72;;;9.74;93.40
18678;BME280;9469;51.114;13.914;2023-04-25T00:52:40;97918.19;;;10.03;93.19
18678;BME280;9469;51.114;13.914;2023-04-25T00:57:47;97907.44;;;9.91;92.45
18678;BME280;9469;51.114;13.914;2023-04-25T01:02:54;97908.38;;;9.69;93.43
18678;BME280;9469;51.114;13.914;2023-04-25T01:08:01;97907.16;;;9.50;95.59
18678;BME280;9469;51.114;13.914;2023-04-25T01:13:06;97904.78;;;9.39;97.15
18678;BME280;9469;51.114;13.914;2023-04-25T01:18:15;97911.06;;;9.61;96.75
18678;BME280;9469;51.114;13.914;2023-04-25T01:23:23;97915.41;;;9.57;96.52
18678;BME280;9469;51.114;13.914;2023-04-25T01:28:29;97906.31;;;9.23;98.51
18678;BME280;9469;51.114;13.914;2023-04-25T01:33:37;97914.63;;;9.30;98.61
18678;BME280;9469;51.114;13.914;2023-04-25T01:38:45;97897.75;;;9.26;98.58
18678;BME280;9469;51.114;13.914;2023-04-25T01:43:54;97909.91;;;9.27;98.85
18678;BME280;9469;51.114;13.914;2023-04-25T01:48:59;97901.38;;;8.83;100.00
18678;BME280;9469;51.114;13.914;2023-04-25T01:54:07;97904.41;;;9.07;99.96
18678;BME280;9469;51.114;13.914;2023-04-25T01:59:13;97895.69;;;8.98;100.00
18678;BME280;9469;51.114;13.914;2023-04-25T02:04:36;97899.94;;;8.68;100.00
18678;BME280;9469;51.114;13.914;2023-04-25T02:09:45;97904.69;;;8.49;100.00
18678;BME280;9469;51.114;13.914;2023-04-25T02:14:54;97902.31;;;8.39;100.00
18678;BME280;9469;51.114;13.914;2023-04-25T02:20:13;97900.78;;;8.16;100.00
18678;BME280;9469;51.114;13.914;2023-04-25T02:25:22;97900.09;;;8.32;100.00
18678;BME280;9469;51.114;13.914;2023-04-25T02:30:27;97896.28;;;8.25;100.00
18678;BME280;9469;51.114;13.914;2023-04-25T02:35:33;97901.53;;;8.38;100.00
18678;BME280;9469;51.114;13.914;2023-04-25T02:40:41;97890.06;;;7.98;100.00
18678;BME280;9469;51.114;13.914;2023-04-25T02:45:46;97898.84;;;8.08;100.00
18678;BME280;9469;51.114;13.914;2023-04-25T02:50:52;97898.00;;;7.98;100.00
18678;BME280;9469;51.114;13.914;2023-04-25T02:56:00;97900.66;;;8.21;100.00
18678;BME280;9469;51.114;13.914;2023-04-25T03:01:06;97893.41;;;8.13;100.00
18678;BME280;9469;51.114;13.914;2023-04-25T03:06:11;97892.34;;;7.91;100.00
18678;BME280;9469;51.114;13.914;2023-04-25T03:11:19;97893.59;;;8.16;99.99
18678;BME280;9469;51.114;13.914;2023-04-25T03:16:25;97890.97;;;8.16;99.23
18678;BME280;9469;51.114;13.914;2023-04-25T03:21:31;97894.72;;;8.24;98.95
18678;BME280;9469;51.114;13.914;2023-04-25T03:26:40;97885.63;;;8.38;98.05
18678;BME280;9469;51.114;13.914;2023-04-25T03:31:45;97896.28;;;8.25;98.24
18678;BME280;9469;51.114;13.914;2023-04-25T03:36:51;97891.50;;;8.05;99.12
18678;BME280;9469;51.114;13.914;2023-04-25T03:41:59;97889.94;;;8.04;99.80
18678;BME280;9469;51.114;13.914;2023-04-25T03:47:06;97884.50;;;8.31;98.10
18678;BME280;9469;51.114;13.914;2023-04-25T03:52:11;97885.03;;;8.19;98.61
18678;BME280;9469;51.114;13.914;2023-04-25T03:57:22;97888.72;;;8.10;98.80
18678;BME280;9469;51.114;13.914;2023-04-25T04:02:28;97894.03;;;7.87;99.11
18678;BME280;9469;51.114;13.914;2023-04-25T04:07:33;97894.75;;;8.02;98.51
18678;BME280;9469;51.114;13.914;2023-04-25T04:12:47;97894.19;;;8.13;97.11
18678;BME280;9469;51.114;13.914;2023-04-25T04:17:53;97894.31;;;8.30;96.51
18678;BME280;9469;51.114;13.914;2023-04-25T04:22:59;97883.03;;;9.12;93.42
18678;BME280;9469;51.114;13.914;2023-04-25T04:28:07;97896.97;;;9.34;89.79
18678;BME280;9469;51.114;13.914;2023-04-25T04:33:26;97903.47;;;9.03;92.12
18678;BME280;9469;51.114;13.914;2023-04-25T04:38:36;97899.56;;;9.00;91.64
18678;BME280;9469;51.114;13.914;2023-04-25T04:43:50;97902.09;;;11.01;87.32
18678;BME280;9469;51.114;13.914;2023-04-25T04:49:14;97904.97;;;14.20;69.64
18678;BME280;9469;51.114;13.914;2023-04-25T04:54:33;97902.72;;;14.96;65.45
18678;BME280;9469;51.114;13.914;2023-04-25T05:00:05;97907.31;;;15.65;63.66
18678;BME280;9469;51.114;13.914;2023-04-25T05:05:31;97912.84;;;16.33;61.95
18678;BME280;9469;51.114;13.914;2023-04-25T05:10:55;97899.44;;;17.28;59.94
18678;BME280;9469;51.114;13.914;2023-04-25T05:16:12;97900.84;;;17.74;57.93
18678;BME280;9469;51.114;13.914;2023-04-25T05:21:30;97901.28;;;16.71;59.77
18678;BME280;9469;51.114;13.914;2023-04-25T05:26:47;97907.50;;;17.01;57.82
18678;BME280;9469;51.114;13.914;2023-04-25T05:31:58;97909.81;;;17.55;57.60
18678;BME280;9469;51.114;13.914;2023-04-25T05:37:06;97902.88;;;16.34;60.08
18678;BME280;9469;51.114;13.914;2023-04-25T05:42:31;97902.44;;;16.74;58.47
18678;BME280;9469;51.114;13.914;2023-04-25T05:47:59;97893.91;;;17.43;57.62
18678;BME280;9469;51.114;13.914;2023-04-25T05:53:28;97905.63;;;16.37;57.80
18678;BME280;9469;51.114;13.914;2023-04-25T05:58:38;97900.81;;;15.32;60.60
18678;BME280;9469;51.114;13.914;2023-04-25T06:03:49;97905.06;;;17.45;55.27
18678;BME280;9469;51.114;13.914;2023-04-25T06:09:01;97902.53;;;15.40;58.11
18678;BME280;9469;51.114;13.914;2023-04-25T06:14:14;97908.22;;;15.92;57.73
18678;BME280;9469;51.114;13.914;2023-04-25T06:19:26;97910.63;;;16.16;57.40
18678;BME280;9469;51.114;13.914;2023-04-25T06:24:31;97909.72;;;16.09;57.58
18678;BME280;9469;51.114;13.914;2023-04-25T06:29:46;97912.94;;;17.05;55.65
18678;BME280;9469;51.114;13.914;2023-04-25T06:34:54;97916.66;;;15.71;58.40
18678;BME280;9469;51.114;13.914;2023-04-25T06:39:59;97907.75;;;16.93;56.10
18678;BME280;9469;51.114;13.914;2023-04-25T06:45:06;97910.56;;;16.55;57.82
18678;BME280;9469;51.114;13.914;2023-04-25T06:50:14;97904.78;;;16.53;56.62
18678;BME280;9469;51.114;13.914;2023-04-25T06:55:19;97901.50;;;17.64;54.23
18678;BME280;9469;51.114;13.914;2023-04-25T07:01:05;97905.75;;;16.44;58.03
18678;BME280;9469;51.114;13.914;2023-04-25T07:06:22;97908.50;;;16.06;56.36
18678;BME280;9469;51.114;13.914;2023-04-25T07:11:30;97913.88;;;15.68;57.59
18678;BME280;9469;51.114;13.914;2023-04-25T07:16:35;97916.59;;;17.19;55.10
18678;BME280;9469;51.114;13.914;2023-04-25T07:21:43;97920.59;;;14.18;60.89
18678;BME280;9469;51.114;13.914;2023-04-25T07:26:50;97916.78;;;14.78;60.06
18678;BME280;9469;51.114;13.914;2023-04-25T07:32:05;97923.09;;;15.51;59.55
18678;BME280;9469;51.114;13.914;2023-04-25T07:37:14;97932.06;;;14.93;59.96
18678;BME280;9469;51.114;13.914;2023-04-25T07:42:40;97935.69;;;13.07;63.24
18678;BME280;9469;51.114;13.914;2023-04-25T07:47:50;97933.31;;;14.36;62.40
18678;BME280;9469;51.114;13.914;2023-04-25T07:52:59;97924.38;;;14.91;60.17
18678;BME280;9469;51.114;13.914;2023-04-25T07:58:12;97936.50;;;13.99;63.03
18678;BME280;9469;51.114;13.914;2023-04-25T08:03:36;97924.88;;;15.28;61.19
18678;BME280;9469;51.114;13.914;2023-04-25T08:09:00;97924.69;;;15.21;61.75
18678;BME280;9469;51.114;13.914;2023-04-25T08:14:12;97944.53;;;12.86;65.54
18678;BME280;9469;51.114;13.914;2023-04-25T08:19:20;97949.44;;;12.40;66.88
18678;BME280;9469;51.114;13.914;2023-04-25T08:24:30;97947.75;;;13.52;67.81
18678;BME280;9469;51.114;13.914;2023-04-25T08:29:41;97955.13;;;13.19;67.14
18678;BME280;9469;51.114;13.914;2023-04-25T08:34:46;97966.59;;;12.51;68.09
18678;BME280;9469;51.114;13.914;2023-04-25T08:39:58;97967.56;;;13.03;69.21
18678;BME280;9469;51.114;13.914;2023-04-25T08:45:21;97968.56;;;12.98;71.24
18678;BME280;9469;51.114;13.914;2023-04-25T08:50:27;97976.66;;;12.90;71.21
18678;BME280;9469;51.114;13.914;2023-04-25T08:55:36;97978.47;;;12.86;71.94
18678;BME280;9469;51.114;13.914;2023-04-25T09:00:45;97986.00;;;12.84;70.39
18678;BME280;9469;51.114;13.914;2023-04-25T09:05:58;97996.88;;;12.67;71.37
18678;BME280;9469;51.114;13.914;2023-04-25T09:11:09;97999.56;;;12.79;70.79
18678;BME280;9469;51.114;13.914;2023-04-25T09:16:16;98007.44;;;12.63;71.97
18678;BME280;9469;51.114;13.914;2023-04-25T09:21:44;97997.84;;;13.19;70.70
18678;BME280;9469;51.114;13.914;2023-04-25T09:26:56;98015.59;;;11.34;74.99
18678;BME280;9469;51.114;13.914;2023-04-25T09:32:25;98024.53;;;11.59;74.85
18678;BME280;9469;51.114;13.914;2023-04-25T09:37:33;98025.38;;;11.51;76.14
18678;BME280;9469;51.114;13.914;2023-04-25T09:43:00;98028.91;;;12.13;75.79
18678;BME280;9469;51.114;13.914;2023-04-25T09:48:05;98036.13;;;10.96;79.20
18678;BME280;9469;51.114;13.914;2023-04-25T09:53:17;98032.34;;;11.64;76.21
18678;BME280;9469;51.114;13.914;2023-04-25T09:58:47;98044.84;;;11.43;75.26
18678;BME280;9469;51.114;13.914;2023-04-25T10:03:55;98038.81;;;10.79;77.55
18678;BME280;9469;51.114;13.914;2023-04-25T10:09:39;98041.50;;;11.54;74.73
18678;BME280;9469;51.114;13.914;2023-04-25T10:14:47;98049.19;;;11.47;75.41
18678;BME280;9469;51.114;13.914;2023-04-25T10:19:54;98047.13;;;11.24;76.54
18678;BME280;9469;51.114;13.914;2023-04-25T10:25:03;98050.66;;;11.66;75.40
18678;BME280;9469;51.114;13.914;2023-04-25T10:30:14;98062.00;;;11.25;73.62
18678;BME280;9469;51.114;13.914;2023-04-25T10:35:24;98059.44;;;11.66;72.97
18678;BME280;9469;51.114;13.914;2023-04-25T10:40:30;98063.53;;;11.34;76.15
18678;BME280;9469;51.114;13.914;2023-04-25T10:45:53;98053.47;;;11.40;76.67
18678;BME280;9469;51.114;13.914;2023-04-25T10:51:07;98061.19;;;11.33;76.94
18678;BME280;9469;51.114;13.914;2023-04-25T10:56:17;98069.69;;;11.18;77.65
18678;BME280;9469;51.114;13.914;2023-04-25T11:01:27;98062.97;;;11.12;78.73
18678;BME280;9469;51.114;13.914;2023-04-25T11:06:46;98068.44;;;10.43;80.18
18678;BME280;9469;51.114;13.914;2023-04-25T11:12:08;98078.13;;;10.56;81.78
18678;BME280;9469;51.114;13.914;2023-04-25T11:17:25;98081.72;;;10.43;83.36
18678;BME280;9469;51.114;13.914;2023-04-25T11:22:33;98091.09;;;10.41;86.66
18678;BME280;9469;51.114;13.914;2023-04-25T11:27:49;98100.50;;;10.38;91.87
18678;BME280;9469;51.114;13.914;2023-04-25T11:32:57;98116.31;;;9.70;93.15
18678;BME280;9469;51.114;13.914;2023-04-25T11:38:04;98123.19;;;10.44;89.46
18678;BME280;9469;51.114;13.914;2023-04-25T11:43:13;98133.75;;;10.10;86.37
18678;BME280;9469;51.114;13.914;2023-04-25T11:48:25;98131.28;;;10.14;83.15
18678;BME280;9469;51.114;13.914;2023-04-25T11:53:32;98144.50;;;9.88;81.89
18678;BME280;9469;51.114;13.914;2023-04-25T11:58:55;98141.31;;;10.51;77.97
18678;BME280;9469;51.114;13.914;2023-04-25T12:04:13;98151.47;;;10.40;78.66
18678;BME280;9469;51.114;13.914;2023-04-25T12:09:29;98147.22;;;10.99;79.02
18678;BME280;9469;51.114;13.914;2023-04-25T12:14:35;98137.47;;;11.20;77.00
18678;BME280;9469;51.114;13.914;2023-04-25T12:19:43;98133.03;;;11.41;75.21
18678;BME280;9469;51.114;13.914;2023-04-25T12:24:51;98135.78;;;11.16;76.65
18678;BME280;9469;51.114;13.914;2023-04-25T12:30:01;98133.81;;;10.53;79.84
18678;BME280;9469;51.114;13.914;2023-04-25T12:35:10;98146.31;;;10.52;79.98
18678;BME280;9469;51.114;13.914;2023-04-25T12:40:16;98156.59;;;10.11;80.99
18678;BME280;9469;51.114;13.914;2023-04-25T12:45:24;98144.44;;;10.27;80.91
18678;BME280;9469;51.114;13.914;2023-04-25T12:50:34;98147.56;;;10.55;81.30
18678;BME280;9469;51.114;13.914;2023-04-25T12:55:42;98151.31;;;10.54;81.17
18678;BME280;9469;51.114;13.914;2023-04-25T13:00:56;98146.16;;;10.92;76.01
18678;BME280;9469;51.114;13.914;2023-04-25T13:06:05;98143.47;;;11.00;75.49
18678;BME280;9469;51.114;13.914;2023-04-25T13:11:12;98151.56;;;11.29;71.45
18678;BME280;9469;51.114;13.914;2023-04-25T13:16:19;98163.81;;;10.45;74.85
18678;BME280;9469;51.114;13.914;2023-04-25T13:21:30;98166.09;;;10.03;76.63
18678;BME280;9469;51.114;13.914;2023-04-25T13:26:35;98167.91;;;10.59;77.11
18678;BME280;9469;51.114;13.914;2023-04-25T13:31:41;98167.28;;;10.54;75.79
18678;BME280;9469;51.114;13.914;2023-04-25T13:36:52;98169.00;;;10.58;76.13
18678;BME280;9469;51.114;13.914;2023-04-25T13:41:57;98178.25;;;10.78;76.72
18678;BME280;9469;51.114;13.914;2023-04-25T13:47:03;98174.00;;;10.86;76.51
18678;BME280;9469;51.114;13.914;2023-04-25T13:52:13;98189.47;;;10.41;76.82
18678;BME280;9469;51.114;13.914;2023-04-25T13:57:18;98196.38;;;10.50;74.10
18678;BME280;9469;51.114;13.914;2023-04-25T14:02:24;98198.44;;;10.70;73.62
18678;BME280;9469;51.114;13.914;2023-04-25T14:07:33;98203.88;;;10.40;72.88
18678;BME280;9469;51.114;13.914;2023-04-25T14:12:39;98207.63;;;10.47;72.63
18678;BME280;9469;51.114;13.914;2023-04-25T14:17:45;98211.09;;;10.82;72.13
18678;BME280;9469;51.114;13.914;2023-04-25T14:22:57;98212.06;;;10.69;70.73
18678;BME280;9469;51.114;13.914;2023-04-25T14:28:02;98211.41;;;10.63;72.20
18678;BME280;9469;51.114;13.914;2023-04-25T14:33:08;98216.91;;;10.75;71.99
18678;BME280;9469;51.114;13.914;2023-04-25T14:38:18;98214.06;;;10.46;71.94
18678;BME280;9469;51.114;13.914;2023-04-25T14:43:26;98208.75;;;10.63;72.47
18678;BME280;9469;51.114;13.914;2023-04-25T14:48:42;98222.69;;;10.69;70.41
18678;BME280;9469;51.114;13.914;2023-04-25T14:53:50;98232.72;;;10.80;71.25
18678;BME280;9469;51.114;13.914;2023-04-25T14:58:56;98229.59;;;10.87;69.89
18678;BME280;9469;51.114;13.914;2023-04-25T15:04:03;98233.63;;;11.02;68.83
18678;BME280;9469;51.114;13.914;2023-04-25T15:09:12;98226.44;;;11.11;67.97
18678;BME280;9469;51.114;13.914;2023-04-25T15:14:20;98234.75;;;11.09;68.51
18678;BME280;9469;51.114;13.914;2023-04-25T15:19:25;98236.94;;;10.99;66.88
18678;BME280;9469;51.114;13.914;2023-04-25T15:24:34;98244.25;;;10.67;66.25
18678;BME280;9469;51.114;13.914;2023-04-25T15:29:39;98243.19;;;10.68;66.20
18678;BME280;9469;51.114;13.914;2023-04-25T15:34:54;98239.72;;;10.59;66.67
18678;BME280;9469;51.114;13.914;2023-04-25T15:40:06;98244.78;;;10.13;64.78
18678;BME280;9469;51.114;13.914;2023-04-25T15:45:14;98254.56;;;10.43;64.95
18678;BME280;9469;51.114;13.914;2023-04-25T15:50:20;98262.28;;;10.14;65.00
18678;BME280;9469;51.114;13.914;2023-04-25T15:55:28;98260.63;;;10.35;64.98
18678;BME280;9469;51.114;13.914;2023-04-25T16:00:34;98257.44;;;10.16;65.67
18678;BME280;9469;51.114;13.914;2023-04-25T16:05:41;98264.16;;;10.14;65.18
18678;BME280;9469;51.114;13.914;2023-04-25T16:10:49;98258.66;;;10.10;65.99
18678;BME280;9469;51.114;13.914;2023-04-25T16:15:54;98259.94;;;10.13;65.73
18678;BME280;9469;51.114;13.914;2023-04-25T16:21:01;98256.06;;;10.27;65.47
18678;BME280;9469;51.114;13.914;2023-04-25T16:26:10;98269.19;;;10.24;65.90
18678;BME280;9469;51.114;13.914;2023-04-25T16:31:15;98260.47;;;10.40;64.32
18678;BME280;9469;51.114;13.914;2023-04-25T16:36:21;98261.91;;;10.38;64.24
18678;BME280;9469;51.114;13.914;2023-04-25T16:41:29;98264.13;;;10.61;63.19
18678;BME280;9469;51.114;13.914;2023-04-25T16:46:34;98280.81;;;10.45;63.11
18678;BME280;9469;51.114;13.914;2023-04-25T16:51:39;98281.94;;;10.52;61.79
18678;BME280;9469;51.114;13.914;2023-04-25T16:56:47;98281.06;;;10.74;61.57
18678;BME280;9469;51.114;13.914;2023-04-25T17:01:56;98285.41;;;10.61;61.97
18678;BME280;9469;51.114;13.914;2023-04-25T17:07:01;98299.31;;;10.10;63.83
18678;BME280;9469;51.114;13.914;2023-04-25T17:12:09;98307.53;;;10.00;63.98
18678;BME280;9469;51.114;13.914;2023-04-25T17:17:15;98311.84;;;9.88;64.98
18678;BME280;9469;51.114;13.914;2023-04-25T17:22:23;98313.31;;;10.02;64.84
18678;BME280;9469;51.114;13.914;2023-04-25T17:27:31;98327.03;;;9.96;64.86
18678;BME280;9469;51.114;13.914;2023-04-25T17:32:37;98328.81;;;10.31;63.69
18678;BME280;9469;51.114;13.914;2023-04-25T17:37:46;98329.88;;;9.77;65.34
18678;BME280;9469;51.114;13.914;2023-04-25T17:42:55;98332.69;;;9.50;65.67
18678;BME280;9469;51.114;13.914;2023-04-25T17:48:00;98334.38;;;9.46;65.81
18678;BME280;9469;51.114;13.914;2023-04-25T17:53:05;98345.88;;;9.19;65.61
18678;BME280;9469;51.114;13.914;2023-04-25T17:58:13;98359.91;;;8.84;64.95
18678;BME280;9469;51.114;13.914;2023-04-25T18:03:19;98366.56;;;8.95;64.19
18678;BME280;9469;51.114;13.914;2023-04-25T18:08:26;98367.78;;;9.11;63.56
18678;BME280;9469;51.114;13.914;2023-04-25T18:13:40;98371.06;;;8.95;63.95
18678;BME280;9469;51.114;13.914;2023-04-25T18:18:54;98374.31;;;8.78;64.15
18678;BME280;9469;51.114;13.914;2023-04-25T18:24:08;98381.13;;;8.71;64.57
18678;BME280;9469;51.114;13.914;2023-04-25T18:29:21;98385.63;;;8.70;65.54
18678;BME280;9469;51.114;13.914;2023-04-25T18:34:40;98384.25;;;8.45;65.83
18678;BME280;9469;51.114;13.914;2023-04-25T18:39:53;98390.31;;;8.87;65.67
18678;BME280;9469;51.114;13.914;2023-04-25T18:45:03;98400.34;;;8.76;65.66
18678;BME280;9469;51.114;13.914;2023-04-25T18:50:12;98409.09;;;8.63;66.24
18678;BME280;9469;51.114;13.914;2023-04-25T18:55:23;98410.47;;;8.74;66.40
18678;BME280;9469;51.114;13.914;2023-04-25T19:00:34;98418.03;;;8.67;66.69
18678;BME280;9469;51.114;13.914;2023-04-25T19:05:40;98426.56;;;8.64;67.13
18678;BME280;9469;51.114;13.914;2023-04-25T19:10:48;98427.25;;;8.56;67.11
18678;BME280;9469;51.114;13.914;2023-04-25T19:15:57;98426.84;;;8.35;68.49
18678;BME280;9469;51.114;13.914;2023-04-25T19:21:06;98427.78;;;8.26;68.96
18678;BME280;9469;51.114;13.914;2023-04-25T19:26:12;98432.41;;;8.02;70.12
18678;BME280;9469;51.114;13.914;2023-04-25T19:31:22;98441.03;;;7.93;70.91
18678;BME280;9469;51.114;13.914;2023-04-25T19:36:29;98432.81;;;8.09;71.11
18678;BME280;9469;51.114;13.914;2023-04-25T19:41:37;98441.47;;;7.82;72.25
18678;BME280;9469;51.114;13.914;2023-04-25T19:46:45;98448.75;;;7.71;72.62
18678;BME280;9469;51.114;13.914;2023-04-25T19:51:50;98451.50;;;7.66;72.96
18678;BME280;9469;51.114;13.914;2023-04-25T19:56:57;98457.16;;;7.60;73.01
18678;BME280;9469;51.114;13.914;2023-04-25T20:02:05;98458.50;;;7.57;73.48
18678;BME280;9469;51.114;13.914;2023-04-25T20:07:12;98458.34;;;7.49;73.95
18678;BME280;9469;51.114;13.914;2023-04-25T20:12:19;98461.06;;;7.62;73.28
18678;BME280;9469;51.114;13.914;2023-04-25T20:17:27;98464.56;;;7.58;73.94
18678;BME280;9469;51.114;13.914;2023-04-25T20:22:33;98469.13;;;7.34;74.93
18678;BME280;9469;51.114;13.914;2023-04-25T20:27:48;98477.47;;;7.22;75.53
18678;BME280;9469;51.114;13.914;2023-04-25T20:32:57;98479.56;;;7.25;75.39
18678;BME280;9469;51.114;13.914;2023-04-25T20:38:10;98476.47;;;7.18;75.49
18678;BME280;9469;51.114;13.914;2023-04-25T20:43:15;98486.09;;;7.09;75.64
18678;BME280;9469;51.114;13.914;2023-04-25T20:48:23;98483.91;;;6.92;76.00
18678;BME280;9469;51.114;13.914;2023-04-25T20:53:29;98487.28;;;6.98;76.06
18678;BME280;9469;51.114;13.914;2023-04-25T20:58:40;98480.75;;;7.14;75.60
18678;BME280;9469;51.114;13.914;2023-04-25T21:03:49;98487.16;;;7.08;76.90
18678;BME280;9469;51.114;13.914;2023-04-25T21:08:55;98484.13;;;7.19;76.70
18678;BME280;9469;51.114;13.914;2023-04-25T21:14:00;98496.22;;;7.02;76.95
18678;BME280;9469;51.114;13.914;2023-04-25T21:19:08;98495.50;;;6.96;77.65
18678;BME280;9469;51.114;13.914;2023-04-25T21:24:17;98497.13;;;6.69;77.25
18678;BME280;9469;51.114;13.914;2023-04-25T21:29:23;98501.38;;;6.65;77.76
18678;BME280;9469;51.114;13.914;2023-04-25T21:34:31;98495.19;;;6.50;78.12
18678;BME280;9469;51.114;13.914;2023-04-25T21:39:36;98502.53;;;6.53;78.55
18678;BME280;9469;51.114;13.914;2023-04-25T21:44:44;98497.81;;;6.50;78.39
18678;BME280;9469;51.114;13.914;2023-04-25T21:49:52;98498.66;;;6.46;78.81
18678;BME280;9469;51.114;13.914;2023-04-25T21:55:02;98512.00;;;6.60;78.49
18678;BME280;9469;51.114;13.914;2023-04-25T22:00:08;98509.56;;;6.34;79.82
18678;BME280;9469;51.114;13.914;2023-04-25T22:05:24;98516.38;;;6.40;80.17
18678;BME280;9469;51.114;13.914;2023-04-25T22:10:30;98519.81;;;6.41;80.63
18678;BME280;9469;51.114;13.914;2023-04-25T22:15:35;98523.13;;;6.57;79.95
18678;BME280;9469;51.114;13.914;2023-04-25T22:20:46;98521.28;;;6.57;80.95
18678;BME280;9469;51.114;13.914;2023-04-25T22:25:58;98526.53;;;6.86;80.17
18678;BME280;9469;51.114;13.914;2023-04-25T22:31:04;98537.34;;;6.61;81.19
18678;BME280;9469;51.114;13.914;2023-04-25T22:36:14;98541.28;;;6.63;81.24
18678;BME280;9469;51.114;13.914;2023-04-25T22:41:20;98534.47;;;6.86;80.83
18678;BME280;9469;51.114;13.914;2023-04-25T22:46:27;98547.44;;;6.87;80.62
18678;BME280;9469;51.114;13.914;2023-04-25T22:51:35;98548.78;;;6.85;80.97
18678;BME280;9469;51.114;13.914;2023-04-25T22:56:40;98548.28;;;6.83;81.74
18678;BME280;9469;51.114;13.914;2023-04-25T23:01:46;98551.81;;;6.97;82.09
18678;BME280;9469;51.114;13.914;2023-04-25T23:06:55;98560.72;;;6.77;82.80
18678;BME280;9469;51.114;13.914;2023-04-25T23:12:02;98556.50;;;6.76;82.84
18678;BME280;9469;51.114;13.914;2023-04-25T23:17:08;98558.41;;;6.71;82.79
18678;BME280;9469;51.114;13.914;2023-04-25T23:22:15;98573.34;;;6.57;84.54
18678;BME280;9469;51.114;13.914;2023-04-25T23:27:20;98565.34;;;6.67;84.74
18678;BME280;9469;51.114;13.914;2023-04-25T23:32:28;98565.81;;;6.74;84.54
18678;BME280;9469;51.114;13.914;2023-04-25T23:37:37;98574.66;;;6.54;84.76
18678;BME280;9469;51.114;13.914;2023-04-25T23:42:44;98574.59;;;6.64;85.39
18678;BME280;9469;51.114;13.914;2023-04-25T23:47:49;98593.50;;;6.47;86.10
18678;BME280;9469;51.114;13.914;2023-04-25T23:52:57;98589.38;;;6.65;86.54
18678;BME280;9469;51.114;13.914;2023-04-25T23:58:02;98587.38;;;6.52;87.52
